Terminal Aerodrome Forecast
Issued by NWS

Home | Current Version | Previous Version | Text Only | Print | Product List | Glossary On
Versions: 1 2 3 4 5 6 7 8 9 10 11 12
000
FTUS45 KREV 250526
TAFTRK
TAF
KTRK 250526Z 2506/2606 VRB03KT P6SM FEW070 BKN180
     FM250700 VRB03KT P6SM SCT180
     FM251800 22014G24KT P6SM FEW100
     FM260200 22006KT P6SM SKC=

USA.gov is the U.S. government's official web portal to all federal, state and local government web resources and services.